createdAt,value
2022-09-15T00:01:51.744Z,67.20
2022-09-15T00:04:27.060Z,67.10
2022-09-15T00:07:01.214Z,66.80
2022-09-15T00:09:35.557Z,67.00
2022-09-15T00:12:09.375Z,67.00
2022-09-15T00:14:42.841Z,67.10
2022-09-15T00:17:16.461Z,67.00
2022-09-15T00:19:51.792Z,67.00
2022-09-15T00:22:25.549Z,66.90
2022-09-15T00:24:58.921Z,67.00
2022-09-15T00:27:33.495Z,67.00
2022-09-15T00:30:09.556Z,67.00
2022-09-15T00:32:43.258Z,67.10
2022-09-15T00:35:18.270Z,66.80
2022-09-15T00:37:51.631Z,66.90
2022-09-15T00:40:25.094Z,66.90
2022-09-15T00:42:58.560Z,66.90
2022-09-15T00:45:32.304Z,66.80
2022-09-15T00:48:07.501Z,66.80
2022-09-15T00:50:46.439Z,66.90
2022-09-15T00:53:23.568Z,67.00
2022-09-15T00:55:59.173Z,67.10
2022-09-15T00:58:38.232Z,67.00
2022-09-15T01:01:14.091Z,67.10
2022-09-15T01:03:47.714Z,67.10
2022-09-15T01:06:33.656Z,67.00
2022-09-15T01:09:15.677Z,67.30
2022-09-15T01:11:49.393Z,67.10
2022-09-15T01:14:23.073Z,67.00
2022-09-15T01:17:15.124Z,66.90
2022-09-15T01:20:59.550Z,66.80
2022-09-15T01:24:16.121Z,66.90
2022-09-15T01:27:30.511Z,66.50
2022-09-15T01:30:21.106Z,66.40
2022-09-15T01:33:22.542Z,66.20
2022-09-15T01:36:06.803Z,66.30
2022-09-15T01:38:52.547Z,65.90
2022-09-15T01:41:32.072Z,66.00
2022-09-15T01:44:10.206Z,66.00
2022-09-15T01:46:49.237Z,65.90
2022-09-15T01:49:29.221Z,65.90
2022-09-15T01:52:03.931Z,66.00
2022-09-15T01:54:49.135Z,66.10
2022-09-15T01:57:24.302Z,66.10
2022-09-15T01:59:58.315Z,66.30
2022-09-15T02:02:39.187Z,66.20
2022-09-15T02:05:25.797Z,66.40
2022-09-15T02:08:08.988Z,66.50
2022-09-15T02:10:52.199Z,66.50
2022-09-15T02:13:39.333Z,66.60
2022-09-15T02:16:20.036Z,66.50
2022-09-15T02:19:13.068Z,66.60
2022-09-15T02:21:58.026Z,66.70
2022-09-15T02:24:39.744Z,66.60
2022-09-15T02:27:21.949Z,66.60
2022-09-15T02:30:05.982Z,66.60
2022-09-15T02:32:47.256Z,66.70
2022-09-15T02:35:23.297Z,66.60
2022-09-15T02:37:57.991Z,66.80
2022-09-15T02:40:32.563Z,66.90
2022-09-15T02:43:10.486Z,67.00
2022-09-15T02:45:44.550Z,67.00
2022-09-15T02:48:18.249Z,67.10
2022-09-15T02:51:00.648Z,67.70
2022-09-15T02:53:34.215Z,67.40
2022-09-15T02:56:08.322Z,67.40
2022-09-15T02:58:49.964Z,67.70
2022-09-15T03:01:32.292Z,67.80
2022-09-15T03:04:06.434Z,68.10
2022-09-15T03:06:41.214Z,68.00
2022-09-15T03:09:14.945Z,67.80
2022-09-15T03:11:48.278Z,68.00
2022-09-15T03:14:21.793Z,68.10
2022-09-15T03:16:55.209Z,68.10
2022-09-15T03:19:28.907Z,68.30
2022-09-15T03:22:03.645Z,68.50
2022-09-15T03:24:37.550Z,68.40
2022-09-15T03:27:10.998Z,68.80
2022-09-15T03:29:44.681Z,68.70
2022-09-15T03:32:18.180Z,68.70
2022-09-15T03:34:53.252Z,68.80
2022-09-15T03:37:31.969Z,69.00
2022-09-15T03:40:06.738Z,69.00
2022-09-15T03:42:40.325Z,69.30
2022-09-15T03:45:13.767Z,69.20
2022-09-15T03:47:47.222Z,69.00
2022-09-15T03:50:20.521Z,69.40
2022-09-15T03:52:58.715Z,69.50
2022-09-15T03:55:33.379Z,69.30
2022-09-15T03:58:06.775Z,69.50
2022-09-15T04:00:40.757Z,69.60
2022-09-15T04:03:15.060Z,69.80
2022-09-15T04:05:48.697Z,69.80
2022-09-15T04:08:23.653Z,69.80
2022-09-15T04:10:57.305Z,69.90
2022-09-15T04:13:31.030Z,69.60
2022-09-15T04:16:08.227Z,69.90
2022-09-15T04:18:42.315Z,70.30
2022-09-15T04:21:18.708Z,70.10
2022-09-15T04:23:54.655Z,70.30
2022-09-15T04:26:32.127Z,70.30
2022-09-15T04:29:12.208Z,70.40
2022-09-15T04:31:46.879Z,70.40
2022-09-15T04:34:20.548Z,70.30
2022-09-15T04:36:54.170Z,70.30
2022-09-15T04:39:28.911Z,70.50
2022-09-15T04:42:05.380Z,70.30
2022-09-15T04:44:38.881Z,70.30
2022-09-15T04:47:12.252Z,70.30
2022-09-15T04:49:45.630Z,70.30
2022-09-15T04:52:19.116Z,70.30
2022-09-15T04:54:54.425Z,70.20
2022-09-15T04:57:27.744Z,70.20
2022-09-15T05:00:01.143Z,70.40
2022-09-15T05:02:34.816Z,70.40
2022-09-15T05:05:09.209Z,70.40
2022-09-15T05:07:42.554Z,70.70
2022-09-15T05:10:17.919Z,70.60
2022-09-15T05:12:51.319Z,70.70
2022-09-15T05:15:25.126Z,70.50
2022-09-15T05:17:59.661Z,70.60
2022-09-15T05:20:33.124Z,70.80
2022-09-15T05:23:06.574Z,70.80
2022-09-15T05:25:41.978Z,70.80
2022-09-15T05:28:15.408Z,70.60
2022-09-15T05:30:48.869Z,70.90
2022-09-15T05:33:24.976Z,70.90
2022-09-15T05:36:01.333Z,70.90
2022-09-15T05:38:35.412Z,71.00
2022-09-15T05:41:13.183Z,70.90
2022-09-15T05:43:49.078Z,71.30
2022-09-15T05:46:22.852Z,71.10
2022-09-15T05:48:59.125Z,71.20
2022-09-15T05:51:34.706Z,71.50
2022-09-15T05:54:08.221Z,71.40
2022-09-15T05:56:42.897Z,71.40
2022-09-15T05:59:16.485Z,71.50
2022-09-15T06:01:50.290Z,71.60
2022-09-15T06:04:24.121Z,71.70
2022-09-15T06:06:57.444Z,71.70
2022-09-15T06:09:30.870Z,71.80
2022-09-15T06:12:06.444Z,71.80
2022-09-15T06:14:40.205Z,72.00
2022-09-15T06:17:14.306Z,71.90
2022-09-15T06:19:47.748Z,71.90
2022-09-15T06:22:31.647Z,72.10
2022-09-15T06:25:06.490Z,72.40
2022-09-15T06:27:42.564Z,72.20
2022-09-15T06:30:16.321Z,72.90
2022-09-15T06:32:50.328Z,72.10
2022-09-15T06:35:23.787Z,72.10
2022-09-15T06:37:57.063Z,72.20
2022-09-15T06:40:30.770Z,72.00
2022-09-15T06:43:07.082Z,72.00
2022-09-15T06:45:40.838Z,72.10
2022-09-15T06:48:24.563Z,72.10
2022-09-15T06:51:03.584Z,72.10
2022-09-15T06:53:39.071Z,72.20
2022-09-15T06:56:15.487Z,72.20
2022-09-15T06:58:50.522Z,72.20
2022-09-15T07:01:28.114Z,72.00
2022-09-15T07:04:05.833Z,72.20
2022-09-15T07:06:41.075Z,72.30
2022-09-15T07:09:14.957Z,72.30
2022-09-15T07:11:48.269Z,72.30
2022-09-15T07:14:23.045Z,72.30
2022-09-15T07:16:57.618Z,72.00
2022-09-15T07:19:31.100Z,72.50
2022-09-15T07:22:04.647Z,72.40
2022-09-15T07:24:38.417Z,72.60
2022-09-15T07:27:12.087Z,72.60
2022-09-15T07:29:47.439Z,72.40
2022-09-15T07:32:22.972Z,72.30
2022-09-15T07:34:58.525Z,72.50
2022-09-15T07:37:33.256Z,72.40
2022-09-15T07:40:08.349Z,72.30
2022-09-15T07:42:44.437Z,72.60
2022-09-15T07:45:19.597Z,72.50
2022-09-15T07:47:53.033Z,72.40
2022-09-15T07:50:27.434Z,72.60
2022-09-15T07:53:00.825Z,72.60
2022-09-15T07:55:34.755Z,72.90
2022-09-15T07:58:09.059Z,72.50
2022-09-15T08:00:45.381Z,72.90
2022-09-15T08:03:19.114Z,72.30
2022-09-15T08:05:57.771Z,72.70
2022-09-15T08:08:32.409Z,72.40
2022-09-15T08:11:09.323Z,72.20
2022-09-15T08:13:43.164Z,72.50
2022-09-15T08:16:21.183Z,72.20
2022-09-15T08:18:56.126Z,71.90
2022-09-15T08:21:29.978Z,71.40
2022-09-15T08:24:03.928Z,71.90
2022-09-15T08:26:38.679Z,71.40
2022-09-15T08:29:12.573Z,71.20
2022-09-15T08:31:48.757Z,72.00
2022-09-15T08:34:22.789Z,71.40
2022-09-15T08:36:56.712Z,71.30
2022-09-15T08:39:30.693Z,70.40
2022-09-15T08:42:05.215Z,70.20
2022-09-15T08:44:47.707Z,70.20
2022-09-15T08:47:28.982Z,70.10
2022-09-15T08:50:12.627Z,69.60
2022-09-15T08:52:52.193Z,69.40
2022-09-15T08:55:38.936Z,68.50
2022-09-15T08:58:19.111Z,68.20
2022-09-15T09:01:02.645Z,67.60
2022-09-15T09:04:08.024Z,67.50
2022-09-15T09:06:56.978Z,67.00
2022-09-15T09:09:43.492Z,67.60
2022-09-15T09:12:46.669Z,67.50
2022-09-15T09:15:39.371Z,66.70
2022-09-15T09:18:47.922Z,66.80
2022-09-15T09:21:28.263Z,66.30
2022-09-15T09:24:14.015Z,65.80
2022-09-15T09:26:54.413Z,65.20
2022-09-15T09:29:36.373Z,65.40
2022-09-15T09:32:21.628Z,65.50
2022-09-15T09:35:06.296Z,65.50
2022-09-15T09:37:40.097Z,65.20
2022-09-15T09:40:16.149Z,65.10
2022-09-15T09:42:50.117Z,65.00
2022-09-15T09:45:24.286Z,64.30
2022-09-15T09:48:10.584Z,64.20
2022-09-15T09:50:46.057Z,64.60
2022-09-15T09:53:28.684Z,64.10
2022-09-15T09:56:19.509Z,63.70
2022-09-15T09:58:53.872Z,62.10
2022-09-15T10:01:28.025Z,62.90
2022-09-15T10:04:19.448Z,62.40
2022-09-15T10:06:57.873Z,61.40
2022-09-15T10:09:33.462Z,61.30
2022-09-15T10:12:09.809Z,62.50
2022-09-15T10:14:45.513Z,62.20
2022-09-15T10:17:22.958Z,60.70
2022-09-15T10:20:00.787Z,61.60
2022-09-15T10:22:42.499Z,61.00
2022-09-15T10:25:57.508Z,60.90
2022-09-15T10:28:29.896Z,61.10
2022-09-15T10:31:07.819Z,61.10
2022-09-15T10:33:43.323Z,60.30
2022-09-15T10:36:21.624Z,60.20
2022-09-15T10:39:11.979Z,59.90
2022-09-15T10:41:55.291Z,59.70
2022-09-15T10:44:43.585Z,60.10
2022-09-15T10:47:32.486Z,59.90
2022-09-15T10:50:17.579Z,59.60
2022-09-15T10:53:12.856Z,59.40
2022-09-15T10:56:00.875Z,59.70
2022-09-15T10:58:56.819Z,60.10
2022-09-15T11:02:04.454Z,60.30
2022-09-15T11:05:05.075Z,60.20
2022-09-15T11:07:49.713Z,60.20
2022-09-15T11:10:33.918Z,60.40
2022-09-15T11:13:26.716Z,60.70
2022-09-15T11:16:13.189Z,60.80
2022-09-15T11:19:21.553Z,61.30
2022-09-15T11:22:01.849Z,61.60
2022-09-15T11:24:46.828Z,61.20
2022-09-15T11:27:27.159Z,61.90
2022-09-15T11:30:08.018Z,61.90
2022-09-15T11:32:54.291Z,61.90
2022-09-15T11:35:45.781Z,62.00
2022-09-15T11:38:42.914Z,62.50
2022-09-15T11:41:23.609Z,62.70
2022-09-15T11:44:16.979Z,62.50
2022-09-15T11:47:05.505Z,62.30
2022-09-15T11:49:47.527Z,62.20
2022-09-15T11:52:51.444Z,62.50
2022-09-15T11:55:36.800Z,62.70
2022-09-15T11:58:25.566Z,62.10
2022-09-15T12:01:09.782Z,62.60
2022-09-15T12:03:55.355Z,63.00
2022-09-15T12:06:38.502Z,63.30
2022-09-15T12:09:18.911Z,63.50
2022-09-15T12:12:01.882Z,63.50
2022-09-15T12:14:39.916Z,64.40
2022-09-15T12:17:26.401Z,63.30
2022-09-15T12:20:07.395Z,62.90
2022-09-15T12:22:53.670Z,62.20
2022-09-15T12:25:37.574Z,62.30
2022-09-15T12:28:54.314Z,62.40
2022-09-15T12:31:38.119Z,61.70
2022-09-15T12:34:38.417Z,61.50
2022-09-15T12:37:16.343Z,61.40
2022-09-15T12:39:50.262Z,61.20
2022-09-15T12:42:32.399Z,60.80
2022-09-15T12:45:21.229Z,60.40
2022-09-15T12:48:03.760Z,60.40
2022-09-15T12:50:40.616Z,60.30
2022-09-15T12:53:23.435Z,60.60
2022-09-15T12:56:00.644Z,61.00
2022-09-15T12:58:38.293Z,60.90
2022-09-15T13:01:55.364Z,61.00
2022-09-15T13:04:59.087Z,61.30
2022-09-15T13:07:53.999Z,60.80
2022-09-15T13:10:43.802Z,60.30
2022-09-15T13:13:32.637Z,59.70
2022-09-15T13:16:16.704Z,59.40
2022-09-15T13:19:08.898Z,59.20
2022-09-15T13:21:49.554Z,59.40
2022-09-15T13:24:38.978Z,59.50
2022-09-15T13:27:19.683Z,59.80
2022-09-15T13:30:04.588Z,59.90
2022-09-15T13:33:06.936Z,60.20
2022-09-15T13:36:11.746Z,59.50
2022-09-15T13:39:17.704Z,59.80
2022-09-15T13:42:32.873Z,59.40
2022-09-15T13:45:37.410Z,58.80
2022-09-15T13:48:43.695Z,58.60
2022-09-15T13:51:28.291Z,58.70
2022-09-15T13:54:07.943Z,58.70
2022-09-15T13:56:46.478Z,58.00
2022-09-15T13:59:30.255Z,57.80
2022-09-15T14:02:12.120Z,57.90
2022-09-15T14:04:51.933Z,58.20
2022-09-15T14:07:26.978Z,58.20
2022-09-15T14:10:00.605Z,58.20
2022-09-15T14:12:38.288Z,57.90
2022-09-15T14:15:25.744Z,57.60
2022-09-15T14:17:59.561Z,57.60
2022-09-15T14:20:34.469Z,57.90
2022-09-15T14:23:17.732Z,57.80
2022-09-15T14:25:51.161Z,57.50
2022-09-15T14:28:31.630Z,57.60
2022-09-15T14:31:07.266Z,57.40
2022-09-15T14:33:42.369Z,57.60
2022-09-15T14:36:23.648Z,57.60
2022-09-15T14:39:22.763Z,57.60
2022-09-15T14:41:56.319Z,57.40
2022-09-15T14:47:33.709Z,57.70
2022-09-15T14:50:10.005Z,57.70
2022-09-15T14:52:46.295Z,57.90
2022-09-15T14:55:26.139Z,57.80
2022-09-15T14:58:06.386Z,57.60
2022-09-15T15:00:52.893Z,57.50
2022-09-15T15:03:38.052Z,57.40
2022-09-15T15:06:28.859Z,57.20
2022-09-15T15:09:11.052Z,57.40
2022-09-15T15:11:45.209Z,57.30
2022-09-15T15:14:19.835Z,57.30
2022-09-15T15:16:59.423Z,57.50
2022-09-15T15:19:38.057Z,57.90
2022-09-15T15:22:36.942Z,57.20
2022-09-15T15:25:34.716Z,57.20
2022-09-15T15:28:08.610Z,57.10
2022-09-15T15:30:48.520Z,57.50
2022-09-15T15:33:28.200Z,57.20
2022-09-15T15:36:06.679Z,57.40
2022-09-15T15:38:47.396Z,57.40
2022-09-15T15:41:24.847Z,57.50
2022-09-15T15:44:08.867Z,57.40
2022-09-15T15:46:52.778Z,56.80
2022-09-15T15:49:29.351Z,56.70
2022-09-15T15:52:04.253Z,56.80
2022-09-15T15:54:37.550Z,56.70
2022-09-15T15:57:25.215Z,56.70
2022-09-15T16:00:00.705Z,56.80
2022-09-15T16:02:34.040Z,56.90
2022-09-15T16:05:07.942Z,56.90
2022-09-15T16:07:44.140Z,57.00
2022-09-15T16:10:21.408Z,56.60
2022-09-15T16:12:54.914Z,56.60
2022-09-15T16:15:28.755Z,56.30
2022-09-15T16:18:02.308Z,56.40
2022-09-15T16:20:35.816Z,56.60
2022-09-15T16:23:16.654Z,56.50
2022-09-15T16:25:55.088Z,56.40
2022-09-15T16:28:29.830Z,56.40
2022-09-15T16:31:04.515Z,56.50
2022-09-15T16:33:38.318Z,56.20
2022-09-15T16:36:15.553Z,56.20
2022-09-15T16:38:51.005Z,56.40
2022-09-15T16:41:27.056Z,56.40
2022-09-15T16:44:00.538Z,56.40
2022-09-15T16:46:33.998Z,56.20
2022-09-15T16:49:07.509Z,56.00
2022-09-15T16:51:42.405Z,55.80
2022-09-15T16:54:20.285Z,55.30
2022-09-15T16:56:53.826Z,55.20
2022-09-15T16:59:27.105Z,54.60
2022-09-15T17:02:00.758Z,54.20
2022-09-15T17:04:34.190Z,54.00
2022-09-15T17:07:08.781Z,53.90
2022-09-15T17:09:43.628Z,53.70
2022-09-15T17:12:16.957Z,53.40
2022-09-15T17:14:50.304Z,53.40
2022-09-15T17:17:27.155Z,53.50
2022-09-15T17:20:00.602Z,53.60
2022-09-15T17:22:34.178Z,53.80
2022-09-15T17:25:25.499Z,53.60
2022-09-15T17:28:02.807Z,53.40
2022-09-15T17:30:37.033Z,53.60
2022-09-15T17:33:15.743Z,53.50
2022-09-15T17:35:49.639Z,53.60
2022-09-15T17:38:24.099Z,53.60
2022-09-15T17:40:59.814Z,53.90
2022-09-15T17:43:33.208Z,53.60
2022-09-15T17:46:07.836Z,53.80
2022-09-15T17:48:41.875Z,53.80
2022-09-15T17:51:18.458Z,53.70
2022-09-15T17:53:55.029Z,53.70
2022-09-15T17:56:29.989Z,53.60
2022-09-15T17:59:03.897Z,53.50
2022-09-15T18:01:37.546Z,53.70
2022-09-15T18:04:12.559Z,53.70
2022-09-15T18:06:46.939Z,54.10
2022-09-15T18:09:23.201Z,53.90
2022-09-15T18:11:57.872Z,53.70
2022-09-15T18:14:31.308Z,53.80
2022-09-15T18:17:04.887Z,53.60
2022-09-15T18:19:38.168Z,53.50
2022-09-15T18:22:14.463Z,53.60
2022-09-15T18:24:47.859Z,53.90
2022-09-15T18:27:22.993Z,53.70
2022-09-15T18:29:56.367Z,53.70
2022-09-15T18:32:29.838Z,54.10
2022-09-15T18:35:03.315Z,53.80
2022-09-15T18:37:37.781Z,53.70
2022-09-15T18:40:14.732Z,53.90
2022-09-15T18:42:49.577Z,53.80
2022-09-15T18:45:23.362Z,53.70
2022-09-15T18:47:57.041Z,53.90
2022-09-15T18:50:30.580Z,53.90
2022-09-15T18:53:04.178Z,54.20
2022-09-15T18:55:41.707Z,54.20
2022-09-15T18:58:17.803Z,54.30
2022-09-15T19:00:52.017Z,54.10
2022-09-15T19:03:25.409Z,54.20
2022-09-15T19:06:04.446Z,54.40
2022-09-15T19:08:38.592Z,54.40
2022-09-15T19:11:15.390Z,54.30
2022-09-15T19:13:50.773Z,54.60
2022-09-15T19:16:34.661Z,54.90
2022-09-15T19:19:13.968Z,54.80
2022-09-15T19:21:47.228Z,55.00
2022-09-15T19:24:20.698Z,54.70
2022-09-15T19:26:54.272Z,55.00
2022-09-15T19:29:34.541Z,55.10
2022-09-15T19:32:12.778Z,55.20
2022-09-15T19:34:48.370Z,55.50
2022-09-15T19:37:23.660Z,55.60
2022-09-15T19:39:57.167Z,55.50
2022-09-15T19:42:30.823Z,55.40
2022-09-15T19:45:06.706Z,55.30
2022-09-15T19:47:41.454Z,55.50
2022-09-15T19:50:14.931Z,55.60
2022-09-15T19:52:48.956Z,55.50
2022-09-15T19:55:23.192Z,55.00
2022-09-15T19:57:56.579Z,55.60
2022-09-15T20:00:31.749Z,55.90
2022-09-15T20:03:05.499Z,55.70
2022-09-15T20:05:39.121Z,56.10
2022-09-15T20:08:12.462Z,56.00
2022-09-15T20:10:50.240Z,56.20
2022-09-15T20:13:23.794Z,56.20
2022-09-15T20:16:02.010Z,56.40
2022-09-15T20:18:38.480Z,56.50
2022-09-15T20:21:22.169Z,56.60
2022-09-15T20:24:13.182Z,56.80
2022-09-15T20:26:50.279Z,56.40
2022-09-15T20:29:23.861Z,56.80
2022-09-15T20:31:58.838Z,57.10
2022-09-15T20:34:32.304Z,57.00
2022-09-15T20:37:05.930Z,57.30
2022-09-15T20:39:39.498Z,57.10
2022-09-15T20:42:12.858Z,57.00
2022-09-15T20:44:46.324Z,57.00
2022-09-15T20:47:21.058Z,57.10
2022-09-15T20:49:54.541Z,57.20
2022-09-15T20:52:35.926Z,57.20
2022-09-15T20:55:11.538Z,57.60
2022-09-15T20:57:47.017Z,57.50
2022-09-15T21:00:20.876Z,57.60
2022-09-15T21:02:55.654Z,57.60
2022-09-15T21:05:29.189Z,57.60
2022-09-15T21:08:03.106Z,57.80
2022-09-15T21:10:37.765Z,57.80
2022-09-15T21:13:11.172Z,57.90
2022-09-15T21:15:44.460Z,57.90
2022-09-15T21:18:19.947Z,57.80
2022-09-15T21:20:58.059Z,57.80
2022-09-15T21:23:35.541Z,58.00
2022-09-15T21:26:11.516Z,57.80
2022-09-15T21:28:46.064Z,57.80
2022-09-15T21:31:27.599Z,57.60
2022-09-15T21:34:03.636Z,57.50
2022-09-15T21:36:37.230Z,57.30
2022-09-15T21:39:11.087Z,57.60
2022-09-15T21:41:44.608Z,57.50
2022-09-15T21:44:21.216Z,57.50
2022-09-15T21:46:54.798Z,57.70
2022-09-15T21:49:29.465Z,57.60
2022-09-15T21:52:03.013Z,57.70
2022-09-15T21:54:36.306Z,57.90
2022-09-15T21:57:10.160Z,58.00
2022-09-15T21:59:43.507Z,57.80
2022-09-15T22:02:17.656Z,57.90
2022-09-15T22:04:52.696Z,57.90
2022-09-15T22:07:26.144Z,58.10
2022-09-15T22:09:59.765Z,58.40
2022-09-15T22:12:33.141Z,58.30
2022-09-15T22:15:08.223Z,58.50
2022-09-15T22:17:42.330Z,58.60
2022-09-15T22:20:17.530Z,58.20
2022-09-15T22:22:53.797Z,58.60
2022-09-15T22:25:27.284Z,58.60
2022-09-15T22:28:00.934Z,58.60
2022-09-15T22:30:35.274Z,58.60
2022-09-15T22:33:08.744Z,58.70
2022-09-15T22:35:48.497Z,58.80
2022-09-15T22:38:22.251Z,59.00
2022-09-15T22:40:56.340Z,59.10
2022-09-15T22:43:29.710Z,59.00
2022-09-15T22:46:03.437Z,58.90
2022-09-15T22:48:43.159Z,59.00
2022-09-15T22:51:18.466Z,58.90
2022-09-15T22:53:56.668Z,58.80
2022-09-15T22:56:30.635Z,59.00
2022-09-15T22:59:04.005Z,58.80
2022-09-15T23:01:37.705Z,58.60
2022-09-15T23:04:11.420Z,58.50
2022-09-15T23:06:46.395Z,58.60
2022-09-15T23:09:19.798Z,58.80
2022-09-15T23:11:53.488Z,58.80
2022-09-15T23:14:27.299Z,59.20
2022-09-15T23:17:00.620Z,58.90
2022-09-15T23:19:34.076Z,58.90
2022-09-15T23:22:09.138Z,58.90
2022-09-15T23:24:42.720Z,58.90
2022-09-15T23:27:16.117Z,58.90
2022-09-15T23:29:49.565Z,58.90
2022-09-15T23:32:24.180Z,58.90
2022-09-15T23:34:57.696Z,58.90
2022-09-15T23:37:32.398Z,58.90
2022-09-15T23:40:06.811Z,59.10
2022-09-15T23:42:40.304Z,59.20
2022-09-15T23:45:13.773Z,59.00
2022-09-15T23:47:47.227Z,59.10
2022-09-15T23:50:20.941Z,59.10
2022-09-15T23:52:55.695Z,59.10
2022-09-15T23:55:41.187Z,59.20
2022-09-15T23:58:15.086Z,59.50
